sensor_id;sensor_type;location;lat;lon;timestamp;P1;durP1;ratioP1;P2;durP2;ratioP2
56141;SDS011;42018;48.588;10.836;2023-07-02T00:00:46;3.22;;;1.60;;
56141;SDS011;42018;48.588;10.836;2023-07-02T00:03:31;2.78;;;1.50;;
56141;SDS011;42018;48.588;10.836;2023-07-02T00:06:16;3.28;;;1.33;;
56141;SDS011;42018;48.588;10.836;2023-07-02T00:09:02;2.42;;;1.23;;
56141;SDS011;42018;48.588;10.836;2023-07-02T00:11:47;3.25;;;1.55;;
56141;SDS011;42018;48.588;10.836;2023-07-02T00:14:33;3.53;;;1.40;;
56141;SDS011;42018;48.588;10.836;2023-07-02T00:17:19;2.63;;;1.40;;
56141;SDS011;42018;48.588;10.836;2023-07-02T00:20:04;4.38;;;1.60;;
56141;SDS011;42018;48.588;10.836;2023-07-02T00:22:59;3.88;;;1.65;;
56141;SDS011;42018;48.588;10.836;2023-07-02T00:25:45;2.70;;;1.40;;
56141;SDS011;42018;48.588;10.836;2023-07-02T00:28:30;2.83;;;1.20;;
56141;SDS011;42018;48.588;10.836;2023-07-02T00:31:16;3.58;;;1.40;;
56141;SDS011;42018;48.588;10.836;2023-07-02T00:34:01;2.03;;;1.20;;
56141;SDS011;42018;48.588;10.836;2023-07-02T00:36:47;2.90;;;1.50;;
56141;SDS011;42018;48.588;10.836;2023-07-02T00:39:33;2.70;;;1.50;;
56141;SDS011;42018;48.588;10.836;2023-07-02T00:42:18;3.47;;;1.35;;
56141;SDS011;42018;48.588;10.836;2023-07-02T00:45:05;4.10;;;1.50;;
56141;SDS011;42018;48.588;10.836;2023-07-02T00:47:53;2.60;;;1.48;;
56141;SDS011;42018;48.588;10.836;2023-07-02T00:50:39;2.38;;;1.20;;
56141;SDS011;42018;48.588;10.836;2023-07-02T00:53:24;3.13;;;1.60;;
56141;SDS011;42018;48.588;10.836;2023-07-02T00:56:10;3.25;;;1.60;;
56141;SDS011;42018;48.588;10.836;2023-07-02T00:58:55;2.60;;;1.40;;
56141;SDS011;42018;48.588;10.836;2023-07-02T01:01:43;3.10;;;1.60;;
56141;SDS011;42018;48.588;10.836;2023-07-02T01:04:34;3.30;;;1.45;;
56141;SDS011;42018;48.588;10.836;2023-07-02T01:07:19;3.05;;;1.67;;
56141;SDS011;42018;48.588;10.836;2023-07-02T01:10:05;3.50;;;1.50;;
56141;SDS011;42018;48.588;10.836;2023-07-02T01:12:51;2.95;;;1.50;;
56141;SDS011;42018;48.588;10.836;2023-07-02T01:15:37;4.72;;;1.77;;
56141;SDS011;42018;48.588;10.836;2023-07-02T01:18:23;5.93;;;1.95;;
56141;SDS011;42018;48.588;10.836;2023-07-02T01:21:09;5.63;;;1.85;;
56141;SDS011;42018;48.588;10.836;2023-07-02T01:23:54;3.55;;;1.70;;
56141;SDS011;42018;48.588;10.836;2023-07-02T01:26:43;4.43;;;1.90;;
56141;SDS011;42018;48.588;10.836;2023-07-02T01:29:30;3.67;;;1.90;;
56141;SDS011;42018;48.588;10.836;2023-07-02T01:32:16;4.15;;;1.60;;
56141;SDS011;42018;48.588;10.836;2023-07-02T01:35:01;2.60;;;1.40;;
56141;SDS011;42018;48.588;10.836;2023-07-02T01:37:47;3.10;;;1.50;;
56141;SDS011;42018;48.588;10.836;2023-07-02T01:40:32;3.47;;;1.60;;
56141;SDS011;42018;48.588;10.836;2023-07-02T01:43:17;2.83;;;1.60;;
56141;SDS011;42018;48.588;10.836;2023-07-02T01:46:03;3.72;;;1.70;;
56141;SDS011;42018;48.588;10.836;2023-07-02T01:48:48;3.35;;;1.70;;
56141;SDS011;42018;48.588;10.836;2023-07-02T01:51:34;3.40;;;1.58;;
56141;SDS011;42018;48.588;10.836;2023-07-02T01:54:19;3.80;;;1.80;;
56141;SDS011;42018;48.588;10.836;2023-07-02T01:57:05;3.28;;;1.70;;
56141;SDS011;42018;48.588;10.836;2023-07-02T01:59:51;2.90;;;1.60;;
56141;SDS011;42018;48.588;10.836;2023-07-02T02:02:36;3.47;;;1.60;;
56141;SDS011;42018;48.588;10.836;2023-07-02T02:05:21;3.17;;;1.63;;
56141;SDS011;42018;48.588;10.836;2023-07-02T02:08:07;3.35;;;1.73;;
56141;SDS011;42018;48.588;10.836;2023-07-02T02:10:52;3.00;;;1.70;;
56141;SDS011;42018;48.588;10.836;2023-07-02T02:13:38;4.00;;;1.60;;
56141;SDS011;42018;48.588;10.836;2023-07-02T02:16:23;3.70;;;1.60;;
56141;SDS011;42018;48.588;10.836;2023-07-02T02:19:08;4.05;;;1.90;;
56141;SDS011;42018;48.588;10.836;2023-07-02T02:21:54;4.78;;;1.90;;
56141;SDS011;42018;48.588;10.836;2023-07-02T02:24:39;4.03;;;1.70;;
56141;SDS011;42018;48.588;10.836;2023-07-02T02:27:24;4.63;;;1.80;;
56141;SDS011;42018;48.588;10.836;2023-07-02T02:30:10;4.68;;;1.80;;
56141;SDS011;42018;48.588;10.836;2023-07-02T02:32:55;3.78;;;1.60;;
56141;SDS011;42018;48.588;10.836;2023-07-02T02:35:41;4.13;;;1.80;;
56141;SDS011;42018;48.588;10.836;2023-07-02T02:38:26;4.82;;;1.80;;
56141;SDS011;42018;48.588;10.836;2023-07-02T02:41:11;4.00;;;2.10;;
56141;SDS011;42018;48.588;10.836;2023-07-02T02:43:57;4.85;;;1.95;;
56141;SDS011;42018;48.588;10.836;2023-07-02T02:46:42;5.75;;;2.13;;
56141;SDS011;42018;48.588;10.836;2023-07-02T02:49:27;3.58;;;1.75;;
56141;SDS011;42018;48.588;10.836;2023-07-02T02:52:13;3.72;;;2.00;;
56141;SDS011;42018;48.588;10.836;2023-07-02T02:54:59;5.22;;;2.10;;
56141;SDS011;42018;48.588;10.836;2023-07-02T02:57:44;3.67;;;1.77;;
56141;SDS011;42018;48.588;10.836;2023-07-02T03:00:30;3.67;;;1.90;;
56141;SDS011;42018;48.588;10.836;2023-07-02T03:03:15;4.72;;;1.70;;
56141;SDS011;42018;48.588;10.836;2023-07-02T03:06:05;4.47;;;1.80;;
56141;SDS011;42018;48.588;10.836;2023-07-02T03:08:51;3.30;;;1.75;;
56141;SDS011;42018;48.588;10.836;2023-07-02T03:11:36;3.53;;;1.60;;
56141;SDS011;42018;48.588;10.836;2023-07-02T03:14:21;3.28;;;1.75;;
56141;SDS011;42018;48.588;10.836;2023-07-02T03:17:06;3.28;;;1.75;;
56141;SDS011;42018;48.588;10.836;2023-07-02T03:19:53;4.50;;;1.70;;
56141;SDS011;42018;48.588;10.836;2023-07-02T03:22:38;3.58;;;1.70;;
56141;SDS011;42018;48.588;10.836;2023-07-02T03:25:24;3.00;;;1.58;;
56141;SDS011;42018;48.588;10.836;2023-07-02T03:28:09;4.93;;;1.73;;
56141;SDS011;42018;48.588;10.836;2023-07-02T03:30:54;3.85;;;2.00;;
56141;SDS011;42018;48.588;10.836;2023-07-02T03:33:40;4.30;;;1.85;;
56141;SDS011;42018;48.588;10.836;2023-07-02T03:36:25;6.30;;;1.80;;
56141;SDS011;42018;48.588;10.836;2023-07-02T03:39:10;4.57;;;2.30;;
56141;SDS011;42018;48.588;10.836;2023-07-02T03:41:56;3.88;;;1.80;;
56141;SDS011;42018;48.588;10.836;2023-07-02T03:44:41;6.10;;;2.10;;
56141;SDS011;42018;48.588;10.836;2023-07-02T03:47:27;4.78;;;2.22;;
56141;SDS011;42018;48.588;10.836;2023-07-02T03:50:12;4.10;;;1.90;;
56141;SDS011;42018;48.588;10.836;2023-07-02T03:52:57;3.10;;;1.75;;
56141;SDS011;42018;48.588;10.836;2023-07-02T03:55:43;3.80;;;1.80;;
56141;SDS011;42018;48.588;10.836;2023-07-02T03:58:28;3.33;;;1.70;;
56141;SDS011;42018;48.588;10.836;2023-07-02T04:01:13;4.10;;;1.88;;
56141;SDS011;42018;48.588;10.836;2023-07-02T04:03:59;3.55;;;1.90;;
56141;SDS011;42018;48.588;10.836;2023-07-02T04:06:44;3.50;;;1.90;;
56141;SDS011;42018;48.588;10.836;2023-07-02T04:09:29;4.57;;;1.83;;
56141;SDS011;42018;48.588;10.836;2023-07-02T04:12:17;4.20;;;1.67;;
56141;SDS011;42018;48.588;10.836;2023-07-02T04:15:03;3.30;;;1.80;;
56141;SDS011;42018;48.588;10.836;2023-07-02T04:17:50;4.97;;;2.00;;
56141;SDS011;42018;48.588;10.836;2023-07-02T04:20:35;3.38;;;1.70;;
56141;SDS011;42018;48.588;10.836;2023-07-02T04:23:23;3.85;;;1.88;;
56141;SDS011;42018;48.588;10.836;2023-07-02T04:26:09;4.55;;;1.80;;
56141;SDS011;42018;48.588;10.836;2023-07-02T04:28:55;3.95;;;1.92;;
56141;SDS011;42018;48.588;10.836;2023-07-02T04:31:40;4.43;;;2.10;;
56141;SDS011;42018;48.588;10.836;2023-07-02T04:34:25;4.72;;;1.85;;
56141;SDS011;42018;48.588;10.836;2023-07-02T04:37:11;4.38;;;1.80;;
56141;SDS011;42018;48.588;10.836;2023-07-02T04:39:56;3.50;;;1.90;;
56141;SDS011;42018;48.588;10.836;2023-07-02T04:42:42;4.90;;;1.90;;
56141;SDS011;42018;48.588;10.836;2023-07-02T04:45:32;3.50;;;1.95;;
56141;SDS011;42018;48.588;10.836;2023-07-02T04:48:21;3.13;;;1.60;;
56141;SDS011;42018;48.588;10.836;2023-07-02T04:51:06;4.25;;;1.73;;
56141;SDS011;42018;48.588;10.836;2023-07-02T04:53:51;4.72;;;1.73;;
56141;SDS011;42018;48.588;10.836;2023-07-02T04:56:37;5.18;;;1.80;;
56141;SDS011;42018;48.588;10.836;2023-07-02T04:59:23;3.03;;;1.73;;
56141;SDS011;42018;48.588;10.836;2023-07-02T05:02:08;4.45;;;1.80;;
56141;SDS011;42018;48.588;10.836;2023-07-02T05:04:53;3.38;;;1.73;;
56141;SDS011;42018;48.588;10.836;2023-07-02T05:07:40;4.53;;;1.65;;
56141;SDS011;42018;48.588;10.836;2023-07-02T05:10:26;4.00;;;1.60;;
56141;SDS011;42018;48.588;10.836;2023-07-02T05:13:11;4.28;;;1.88;;
56141;SDS011;42018;48.588;10.836;2023-07-02T05:15:56;3.53;;;1.60;;
56141;SDS011;42018;48.588;10.836;2023-07-02T05:18:42;3.90;;;1.70;;
56141;SDS011;42018;48.588;10.836;2023-07-02T05:21:27;3.40;;;1.65;;
56141;SDS011;42018;48.588;10.836;2023-07-02T05:24:12;3.10;;;1.48;;
56141;SDS011;42018;48.588;10.836;2023-07-02T05:26:58;3.97;;;1.77;;
56141;SDS011;42018;48.588;10.836;2023-07-02T05:29:43;4.03;;;1.85;;
56141;SDS011;42018;48.588;10.836;2023-07-02T05:32:33;4.25;;;1.60;;
56141;SDS011;42018;48.588;10.836;2023-07-02T05:35:19;4.50;;;1.70;;
56141;SDS011;42018;48.588;10.836;2023-07-02T05:38:04;3.75;;;1.70;;
56141;SDS011;42018;48.588;10.836;2023-07-02T05:40:50;5.18;;;1.70;;
56141;SDS011;42018;48.588;10.836;2023-07-02T05:43:35;3.00;;;1.58;;
56141;SDS011;42018;48.588;10.836;2023-07-02T05:46:23;3.03;;;1.50;;
56141;SDS011;42018;48.588;10.836;2023-07-02T05:49:09;4.05;;;1.60;;
56141;SDS011;42018;48.588;10.836;2023-07-02T05:51:54;3.60;;;1.60;;
56141;SDS011;42018;48.588;10.836;2023-07-02T05:54:40;4.63;;;1.90;;
56141;SDS011;42018;48.588;10.836;2023-07-02T05:57:26;3.20;;;1.50;;
56141;SDS011;42018;48.588;10.836;2023-07-02T06:00:11;3.85;;;1.80;;
56141;SDS011;42018;48.588;10.836;2023-07-02T06:02:57;3.03;;;1.60;;
56141;SDS011;42018;48.588;10.836;2023-07-02T06:05:49;3.75;;;1.70;;
56141;SDS011;42018;48.588;10.836;2023-07-02T06:08:35;3.45;;;1.70;;
56141;SDS011;42018;48.588;10.836;2023-07-02T06:11:20;3.45;;;1.73;;
56141;SDS011;42018;48.588;10.836;2023-07-02T06:14:05;4.82;;;2.10;;
56141;SDS011;42018;48.588;10.836;2023-07-02T06:16:51;4.72;;;1.67;;
56141;SDS011;42018;48.588;10.836;2023-07-02T06:19:37;3.17;;;1.60;;
56141;SDS011;42018;48.588;10.836;2023-07-02T06:22:23;4.28;;;2.00;;
56141;SDS011;42018;48.588;10.836;2023-07-02T06:25:08;3.90;;;1.90;;
56141;SDS011;42018;48.588;10.836;2023-07-02T06:27:53;3.38;;;1.70;;
56141;SDS011;42018;48.588;10.836;2023-07-02T06:30:43;3.35;;;1.60;;
56141;SDS011;42018;48.588;10.836;2023-07-02T06:33:28;5.10;;;2.03;;
56141;SDS011;42018;48.588;10.836;2023-07-02T06:36:13;3.35;;;1.70;;
56141;SDS011;42018;48.588;10.836;2023-07-02T06:38:59;3.55;;;1.60;;
56141;SDS011;42018;48.588;10.836;2023-07-02T06:41:45;3.22;;;1.70;;
56141;SDS011;42018;48.588;10.836;2023-07-02T06:44:30;3.55;;;1.80;;
56141;SDS011;42018;48.588;10.836;2023-07-02T06:47:15;3.75;;;1.77;;
56141;SDS011;42018;48.588;10.836;2023-07-02T06:50:01;3.47;;;1.80;;
56141;SDS011;42018;48.588;10.836;2023-07-02T06:52:47;3.90;;;1.73;;
56141;SDS011;42018;48.588;10.836;2023-07-02T06:55:35;3.50;;;1.63;;
56141;SDS011;42018;48.588;10.836;2023-07-02T06:58:20;2.92;;;1.70;;
56141;SDS011;42018;48.588;10.836;2023-07-02T07:01:06;3.00;;;1.60;;
56141;SDS011;42018;48.588;10.836;2023-07-02T07:03:52;3.70;;;1.50;;
56141;SDS011;42018;48.588;10.836;2023-07-02T07:06:38;2.70;;;1.38;;
56141;SDS011;42018;48.588;10.836;2023-07-02T07:09:23;3.35;;;1.60;;
56141;SDS011;42018;48.588;10.836;2023-07-02T07:12:09;4.05;;;1.90;;
56141;SDS011;42018;48.588;10.836;2023-07-02T07:14:54;3.45;;;1.73;;
56141;SDS011;42018;48.588;10.836;2023-07-02T07:17:39;4.15;;;2.20;;
56141;SDS011;42018;48.588;10.836;2023-07-02T07:20:25;4.20;;;2.13;;
56141;SDS011;42018;48.588;10.836;2023-07-02T07:23:10;4.40;;;2.20;;
56141;SDS011;42018;48.588;10.836;2023-07-02T07:25:55;4.68;;;2.28;;
56141;SDS011;42018;48.588;10.836;2023-07-02T07:28:41;4.78;;;2.35;;
56141;SDS011;42018;48.588;10.836;2023-07-02T07:31:27;5.05;;;2.53;;
56141;SDS011;42018;48.588;10.836;2023-07-02T07:34:12;5.28;;;2.55;;
56141;SDS011;42018;48.588;10.836;2023-07-02T07:36:58;5.25;;;2.90;;
56141;SDS011;42018;48.588;10.836;2023-07-02T07:39:43;5.18;;;3.33;;
56141;SDS011;42018;48.588;10.836;2023-07-02T07:42:28;5.25;;;2.92;;
56141;SDS011;42018;48.588;10.836;2023-07-02T07:45:13;5.50;;;3.63;;
56141;SDS011;42018;48.588;10.836;2023-07-02T07:47:59;5.85;;;3.70;;
56141;SDS011;42018;48.588;10.836;2023-07-02T07:50:44;6.15;;;3.88;;
56141;SDS011;42018;48.588;10.836;2023-07-02T07:53:30;7.68;;;3.95;;
56141;SDS011;42018;48.588;10.836;2023-07-02T07:56:15;6.75;;;4.13;;
56141;SDS011;42018;48.588;10.836;2023-07-02T07:59:00;5.80;;;3.85;;
56141;SDS011;42018;48.588;10.836;2023-07-02T08:01:46;6.22;;;3.90;;
56141;SDS011;42018;48.588;10.836;2023-07-02T08:04:31;6.13;;;3.90;;
56141;SDS011;42018;48.588;10.836;2023-07-02T08:07:17;8.05;;;3.50;;
56141;SDS011;42018;48.588;10.836;2023-07-02T08:10:02;5.40;;;3.47;;
56141;SDS011;42018;48.588;10.836;2023-07-02T08:12:48;6.07;;;4.00;;
56141;SDS011;42018;48.588;10.836;2023-07-02T08:15:34;7.10;;;3.83;;
56141;SDS011;42018;48.588;10.836;2023-07-02T08:18:19;7.35;;;4.32;;
56141;SDS011;42018;48.588;10.836;2023-07-02T08:21:05;7.93;;;4.40;;
56141;SDS011;42018;48.588;10.836;2023-07-02T08:23:51;7.90;;;4.78;;
56141;SDS011;42018;48.588;10.836;2023-07-02T08:26:36;8.15;;;4.60;;
56141;SDS011;42018;48.588;10.836;2023-07-02T08:29:22;6.95;;;4.43;;
56141;SDS011;42018;48.588;10.836;2023-07-02T08:32:07;5.93;;;4.07;;
56141;SDS011;42018;48.588;10.836;2023-07-02T08:34:53;6.35;;;4.45;;
56141;SDS011;42018;48.588;10.836;2023-07-02T08:37:38;7.28;;;4.93;;
56141;SDS011;42018;48.588;10.836;2023-07-02T08:40:24;7.90;;;4.53;;
56141;SDS011;42018;48.588;10.836;2023-07-02T08:43:09;6.40;;;4.82;;
56141;SDS011;42018;48.588;10.836;2023-07-02T08:45:55;5.78;;;4.10;;
56141;SDS011;42018;48.588;10.836;2023-07-02T08:48:40;9.55;;;4.78;;
56141;SDS011;42018;48.588;10.836;2023-07-02T08:51:26;7.55;;;4.90;;
56141;SDS011;42018;48.588;10.836;2023-07-02T08:54:11;8.00;;;4.28;;
56141;SDS011;42018;48.588;10.836;2023-07-02T08:56:57;7.20;;;5.07;;
56141;SDS011;42018;48.588;10.836;2023-07-02T08:59:42;7.63;;;4.60;;
56141;SDS011;42018;48.588;10.836;2023-07-02T09:02:31;6.43;;;4.38;;
56141;SDS011;42018;48.588;10.836;2023-07-02T09:05:18;7.60;;;4.40;;
56141;SDS011;42018;48.588;10.836;2023-07-02T09:08:03;6.75;;;4.68;;
56141;SDS011;42018;48.588;10.836;2023-07-02T09:10:49;6.68;;;4.57;;
56141;SDS011;42018;48.588;10.836;2023-07-02T09:13:44;7.20;;;5.00;;
56141;SDS011;42018;48.588;10.836;2023-07-02T09:16:33;7.82;;;4.50;;
56141;SDS011;42018;48.588;10.836;2023-07-02T09:19:22;6.50;;;4.30;;
56141;SDS011;42018;48.588;10.836;2023-07-02T09:22:07;7.95;;;5.00;;
56141;SDS011;42018;48.588;10.836;2023-07-02T09:24:57;7.38;;;4.60;;
56141;SDS011;42018;48.588;10.836;2023-07-02T09:27:44;6.97;;;4.65;;
56141;SDS011;42018;48.588;10.836;2023-07-02T09:30:29;7.18;;;4.32;;
56141;SDS011;42018;48.588;10.836;2023-07-02T09:33:15;6.85;;;4.43;;
56141;SDS011;42018;48.588;10.836;2023-07-02T09:36:01;6.65;;;4.28;;
56141;SDS011;42018;48.588;10.836;2023-07-02T09:38:49;6.50;;;4.18;;
56141;SDS011;42018;48.588;10.836;2023-07-02T09:41:38;6.25;;;4.10;;
56141;SDS011;42018;48.588;10.836;2023-07-02T09:44:27;7.15;;;4.30;;
56141;SDS011;42018;48.588;10.836;2023-07-02T09:47:13;7.55;;;4.15;;
56141;SDS011;42018;48.588;10.836;2023-07-02T09:50:03;6.82;;;4.40;;
56141;SDS011;42018;48.588;10.836;2023-07-02T09:55:39;6.05;;;4.00;;
56141;SDS011;42018;48.588;10.836;2023-07-02T09:58:26;7.47;;;4.15;;
56141;SDS011;42018;48.588;10.836;2023-07-02T10:01:12;6.63;;;4.20;;
56141;SDS011;42018;48.588;10.836;2023-07-02T10:03:57;6.93;;;3.78;;
56141;SDS011;42018;48.588;10.836;2023-07-02T10:12:28;6.57;;;4.00;;
56141;SDS011;42018;48.588;10.836;2023-07-02T10:15:23;6.72;;;4.05;;
56141;SDS011;42018;48.588;10.836;2023-07-02T10:18:09;6.80;;;3.90;;
56141;SDS011;42018;48.588;10.836;2023-07-02T10:20:55;6.63;;;3.97;;
56141;SDS011;42018;48.588;10.836;2023-07-02T10:23:40;6.45;;;3.85;;
56141;SDS011;42018;48.588;10.836;2023-07-02T10:26:26;6.32;;;4.10;;
56141;SDS011;42018;48.588;10.836;2023-07-02T10:29:17;6.38;;;3.40;;
56141;SDS011;42018;48.588;10.836;2023-07-02T10:32:04;6.65;;;3.58;;
56141;SDS011;42018;48.588;10.836;2023-07-02T10:34:50;5.70;;;3.90;;
56141;SDS011;42018;48.588;10.836;2023-07-02T10:37:38;6.20;;;3.60;;
56141;SDS011;42018;48.588;10.836;2023-07-02T10:40:23;5.75;;;3.65;;
56141;SDS011;42018;48.588;10.836;2023-07-02T10:43:09;6.13;;;3.67;;
56141;SDS011;42018;48.588;10.836;2023-07-02T10:45:54;6.18;;;4.00;;
56141;SDS011;42018;48.588;10.836;2023-07-02T10:48:40;6.03;;;3.30;;
56141;SDS011;42018;48.588;10.836;2023-07-02T10:51:36;6.43;;;3.70;;
56141;SDS011;42018;48.588;10.836;2023-07-02T10:54:21;6.65;;;3.83;;
56141;SDS011;42018;48.588;10.836;2023-07-02T10:57:07;5.78;;;3.53;;
56141;SDS011;42018;48.588;10.836;2023-07-02T11:00:02;7.05;;;3.67;;
56141;SDS011;42018;48.588;10.836;2023-07-02T11:02:53;6.93;;;4.00;;
56141;SDS011;42018;48.588;10.836;2023-07-02T11:05:38;6.13;;;3.80;;
56141;SDS011;42018;48.588;10.836;2023-07-02T11:08:24;7.50;;;4.15;;
56141;SDS011;42018;48.588;10.836;2023-07-02T11:11:19;5.82;;;3.63;;
56141;SDS011;42018;48.588;10.836;2023-07-02T11:14:05;6.65;;;3.75;;
56141;SDS011;42018;48.588;10.836;2023-07-02T11:16:53;5.70;;;3.95;;
56141;SDS011;42018;48.588;10.836;2023-07-02T11:19:40;5.20;;;3.47;;
56141;SDS011;42018;48.588;10.836;2023-07-02T11:22:32;5.75;;;3.80;;
56141;SDS011;42018;48.588;10.836;2023-07-02T11:25:18;5.38;;;3.67;;
56141;SDS011;42018;48.588;10.836;2023-07-02T11:28:07;5.18;;;3.78;;
56141;SDS011;42018;48.588;10.836;2023-07-02T11:30:52;6.05;;;3.65;;
56141;SDS011;42018;48.588;10.836;2023-07-02T11:33:39;6.72;;;3.72;;
56141;SDS011;42018;48.588;10.836;2023-07-02T11:36:25;5.50;;;3.85;;
56141;SDS011;42018;48.588;10.836;2023-07-02T11:39:10;5.90;;;4.05;;
56141;SDS011;42018;48.588;10.836;2023-07-02T11:41:57;6.65;;;4.13;;
56141;SDS011;42018;48.588;10.836;2023-07-02T11:44:42;5.60;;;3.95;;
56141;SDS011;42018;48.588;10.836;2023-07-02T11:47:28;5.88;;;4.15;;
56141;SDS011;42018;48.588;10.836;2023-07-02T11:50:13;6.13;;;4.20;;
56141;SDS011;42018;48.588;10.836;2023-07-02T11:52:58;6.10;;;4.43;;
56141;SDS011;42018;48.588;10.836;2023-07-02T11:55:44;6.75;;;4.43;;
56141;SDS011;42018;48.588;10.836;2023-07-02T11:58:29;6.30;;;4.38;;
56141;SDS011;42018;48.588;10.836;2023-07-02T12:01:14;8.05;;;4.97;;
56141;SDS011;42018;48.588;10.836;2023-07-02T12:04:00;6.75;;;4.80;;
56141;SDS011;42018;48.588;10.836;2023-07-02T12:06:46;6.22;;;4.72;;
56141;SDS011;42018;48.588;10.836;2023-07-02T12:09:31;6.97;;;4.45;;
56141;SDS011;42018;48.588;10.836;2023-07-02T12:12:16;7.38;;;4.82;;
56141;SDS011;42018;48.588;10.836;2023-07-02T12:15:02;6.10;;;4.82;;
56141;SDS011;42018;48.588;10.836;2023-07-02T12:17:47;8.50;;;4.78;;
56141;SDS011;42018;48.588;10.836;2023-07-02T12:20:33;6.45;;;5.20;;
56141;SDS011;42018;48.588;10.836;2023-07-02T12:23:24;7.05;;;4.97;;
56141;SDS011;42018;48.588;10.836;2023-07-02T12:26:09;6.93;;;5.10;;
56141;SDS011;42018;48.588;10.836;2023-07-02T12:28:54;9.25;;;5.57;;
56141;SDS011;42018;48.588;10.836;2023-07-02T12:31:40;8.02;;;6.43;;
56141;SDS011;42018;48.588;10.836;2023-07-02T12:34:39;8.88;;;7.18;;
56141;SDS011;42018;48.588;10.836;2023-07-02T12:37:24;8.50;;;7.07;;
56141;SDS011;42018;48.588;10.836;2023-07-02T12:41:10;8.35;;;6.90;;
56141;SDS011;42018;48.588;10.836;2023-07-02T12:44:15;9.38;;;7.18;;
56141;SDS011;42018;48.588;10.836;2023-07-02T12:47:06;8.63;;;7.45;;
56141;SDS011;42018;48.588;10.836;2023-07-02T12:49:51;8.82;;;7.35;;
56141;SDS011;42018;48.588;10.836;2023-07-02T12:52:37;10.60;;;8.43;;
56141;SDS011;42018;48.588;10.836;2023-07-02T12:55:28;10.45;;;9.00;;
56141;SDS011;42018;48.588;10.836;2023-07-02T12:58:14;12.10;;;9.13;;
56141;SDS011;42018;48.588;10.836;2023-07-02T13:00:59;9.50;;;8.50;;
56141;SDS011;42018;48.588;10.836;2023-07-02T13:03:45;10.55;;;9.43;;
56141;SDS011;42018;48.588;10.836;2023-07-02T13:06:32;10.30;;;9.20;;
56141;SDS011;42018;48.588;10.836;2023-07-02T13:09:25;9.88;;;8.88;;
56141;SDS011;42018;48.588;10.836;2023-07-02T13:12:11;9.98;;;8.90;;
56141;SDS011;42018;48.588;10.836;2023-07-02T13:14:57;9.75;;;8.75;;
56141;SDS011;42018;48.588;10.836;2023-07-02T13:17:42;10.43;;;9.32;;
56141;SDS011;42018;48.588;10.836;2023-07-02T13:20:28;10.23;;;9.13;;
56141;SDS011;42018;48.588;10.836;2023-07-02T13:23:21;9.73;;;8.65;;
56141;SDS011;42018;48.588;10.836;2023-07-02T13:26:07;11.15;;;9.68;;
56141;SDS011;42018;48.588;10.836;2023-07-02T13:28:52;10.57;;;9.48;;
56141;SDS011;42018;48.588;10.836;2023-07-02T13:31:37;9.73;;;8.73;;
56141;SDS011;42018;48.588;10.836;2023-07-02T13:34:23;10.88;;;8.35;;
56141;SDS011;42018;48.588;10.836;2023-07-02T13:37:10;9.63;;;8.63;;
56141;SDS011;42018;48.588;10.836;2023-07-02T13:39:56;11.43;;;9.90;;
56141;SDS011;42018;48.588;10.836;2023-07-02T13:42:49;10.32;;;9.15;;
56141;SDS011;42018;48.588;10.836;2023-07-02T13:45:34;10.95;;;9.25;;
56141;SDS011;42018;48.588;10.836;2023-07-02T13:48:20;10.95;;;8.70;;
56141;SDS011;42018;48.588;10.836;2023-07-02T13:51:05;9.38;;;8.38;;
56141;SDS011;42018;48.588;10.836;2023-07-02T13:54:02;9.98;;;8.98;;
56141;SDS011;42018;48.588;10.836;2023-07-02T13:56:47;9.82;;;8.82;;
56141;SDS011;42018;48.588;10.836;2023-07-02T13:59:38;9.90;;;8.57;;
56141;SDS011;42018;48.588;10.836;2023-07-02T14:02:23;10.30;;;9.20;;
56141;SDS011;42018;48.588;10.836;2023-07-02T14:05:09;10.90;;;9.43;;
56141;SDS011;42018;48.588;10.836;2023-07-02T14:07:54;10.18;;;8.80;;
56141;SDS011;42018;48.588;10.836;2023-07-02T14:10:39;10.55;;;8.82;;
56141;SDS011;42018;48.588;10.836;2023-07-02T14:13:25;10.32;;;9.23;;
56141;SDS011;42018;48.588;10.836;2023-07-02T14:16:10;10.15;;;9.02;;
56141;SDS011;42018;48.588;10.836;2023-07-02T14:18:55;10.82;;;9.73;;
56141;SDS011;42018;48.588;10.836;2023-07-02T14:21:44;10.77;;;9.68;;
56141;SDS011;42018;48.588;10.836;2023-07-02T14:24:31;11.00;;;9.90;;
56141;SDS011;42018;48.588;10.836;2023-07-02T14:27:21;11.73;;;9.73;;
56141;SDS011;42018;48.588;10.836;2023-07-02T14:30:07;12.27;;;9.70;;
56141;SDS011;42018;48.588;10.836;2023-07-02T14:32:53;10.25;;;9.15;;
56141;SDS011;42018;48.588;10.836;2023-07-02T14:35:53;11.07;;;9.40;;
56141;SDS011;42018;48.588;10.836;2023-07-02T14:38:57;11.02;;;9.73;;
56141;SDS011;42018;48.588;10.836;2023-07-02T14:44:48;10.65;;;9.55;;
56141;SDS011;42018;48.588;10.836;2023-07-02T14:47:34;11.15;;;9.95;;
56141;SDS011;42018;48.588;10.836;2023-07-02T14:50:19;12.02;;;10.35;;
56141;SDS011;42018;48.588;10.836;2023-07-02T14:53:04;12.20;;;10.07;;
56141;SDS011;42018;48.588;10.836;2023-07-02T14:55:50;10.95;;;9.85;;
56141;SDS011;42018;48.588;10.836;2023-07-02T14:58:35;11.15;;;10.02;;
56141;SDS011;42018;48.588;10.836;2023-07-02T15:01:20;11.07;;;9.98;;
56141;SDS011;42018;48.588;10.836;2023-07-02T15:04:06;10.85;;;9.75;;
56141;SDS011;42018;48.588;10.836;2023-07-02T15:06:51;11.43;;;10.23;;
56141;SDS011;42018;48.588;10.836;2023-07-02T15:09:37;11.95;;;10.23;;
56141;SDS011;42018;48.588;10.836;2023-07-02T15:12:22;11.57;;;10.38;;
56141;SDS011;42018;48.588;10.836;2023-07-02T15:15:27;11.77;;;10.68;;
56141;SDS011;42018;48.588;10.836;2023-07-02T15:18:18;12.38;;;11.07;;
56141;SDS011;42018;48.588;10.836;2023-07-02T15:21:10;11.25;;;10.02;;
56141;SDS011;42018;48.588;10.836;2023-07-02T15:23:58;12.07;;;10.88;;
56141;SDS011;42018;48.588;10.836;2023-07-02T15:26:43;10.48;;;9.48;;
56141;SDS011;42018;48.588;10.836;2023-07-02T15:29:29;10.65;;;9.30;;
56141;SDS011;42018;48.588;10.836;2023-07-02T15:32:14;9.57;;;8.57;;
56141;SDS011;42018;48.588;10.836;2023-07-02T15:35:00;9.82;;;8.27;;
56141;SDS011;42018;48.588;10.836;2023-07-02T15:37:45;9.48;;;8.00;;
56141;SDS011;42018;48.588;10.836;2023-07-02T15:40:30;9.23;;;8.23;;
56141;SDS011;42018;48.588;10.836;2023-07-02T15:43:16;9.20;;;8.18;;
56141;SDS011;42018;48.588;10.836;2023-07-02T15:46:01;8.75;;;7.85;;
56141;SDS011;42018;48.588;10.836;2023-07-02T15:48:47;9.80;;;8.40;;
56141;SDS011;42018;48.588;10.836;2023-07-02T15:51:35;9.63;;;8.63;;
56141;SDS011;42018;48.588;10.836;2023-07-02T15:54:24;9.50;;;7.57;;
56141;SDS011;42018;48.588;10.836;2023-07-02T15:57:09;8.73;;;7.72;;
56141;SDS011;42018;48.588;10.836;2023-07-02T15:59:54;11.02;;;9.93;;
56141;SDS011;42018;48.588;10.836;2023-07-02T16:02:40;8.32;;;6.88;;
56141;SDS011;42018;48.588;10.836;2023-07-02T16:05:26;10.05;;;9.00;;
56141;SDS011;42018;48.588;10.836;2023-07-02T16:08:11;9.23;;;8.20;;
56141;SDS011;42018;48.588;10.836;2023-07-02T16:10:57;9.88;;;7.60;;
56141;SDS011;42018;48.588;10.836;2023-07-02T16:13:43;11.02;;;9.75;;
56141;SDS011;42018;48.588;10.836;2023-07-02T16:16:31;8.98;;;7.28;;
56141;SDS011;42018;48.588;10.836;2023-07-02T16:19:18;7.28;;;6.30;;
56141;SDS011;42018;48.588;10.836;2023-07-02T16:22:03;8.77;;;7.88;;
56141;SDS011;42018;48.588;10.836;2023-07-02T16:24:50;8.88;;;6.55;;
56141;SDS011;42018;48.588;10.836;2023-07-02T16:27:35;7.95;;;6.47;;
56141;SDS011;42018;48.588;10.836;2023-07-02T16:30:21;8.40;;;6.93;;
56141;SDS011;42018;48.588;10.836;2023-07-02T16:33:07;7.60;;;6.45;;
56141;SDS011;42018;48.588;10.836;2023-07-02T16:35:52;7.85;;;6.55;;
56141;SDS011;42018;48.588;10.836;2023-07-02T16:38:37;7.15;;;6.43;;